Time;durP1;ratioP1;P1;durP2;ratioP2;P2;SDS_P1;SDS_P2;PMS_P1;PMS_P2;Temp;Humidity;BMP_temperature;BMP_pressure;BME280_temperature;BME280_humidity;BME280_pressure;Samples;Min_cycle;Max_cycle;Signal;HPM_P1;HPM_P2
2024/01/17 00:01:59;;;;;;;17.77;9.07;;;;;;;-3.91;100.00;100172.88;5050436;28;20064;-74
2024/01/17 00:04:25;;;;;;;17.15;8.70;;;;;;;-4.04;100.00;100144.34;5050728;28;20049;-74
2024/01/17 00:06:51;;;;;;;18.40;8.73;;;;;;;-3.92;100.00;100153.00;5050337;28;20021;-74
2024/01/17 00:09:18;;;;;;;17.52;8.15;;;;;;;-3.93;100.00;100157.38;5048871;28;20662;-74
2024/01/17 00:11:44;;;;;;;18.58;9.13;;;;;;;-3.94;100.00;100160.91;5048852;28;20048;-74
2024/01/17 00:14:09;;;;;;;19.50;8.52;;;;;;;-3.97;100.00;100151.56;5032292;28;20436;-74
2024/01/17 00:16:35;;;;;;;16.52;9.38;;;;;;;-3.99;100.00;100148.25;5050210;28;20025;-74
2024/01/17 00:19:00;;;;;;;17.75;9.25;;;;;;;-3.99;100.00;100143.03;5048988;28;20040;-74
2024/01/17 00:21:27;;;;;;;21.25;8.70;;;;;;;-3.98;100.00;100141.28;5050235;28;20025;-74
2024/01/17 00:23:52;;;;;;;24.45;8.88;;;;;;;-4.03;100.00;100125.19;5032257;28;20033;-75
2024/01/17 00:26:17;;;;;;;16.42;7.97;;;;;;;-4.03;100.00;100126.03;5032071;28;20399;-74
2024/01/17 00:28:43;;;;;;;17.20;8.43;;;;;;;-4.04;100.00;100119.13;5032103;28;20043;-74
2024/01/17 00:31:08;;;;;;;19.33;8.65;;;;;;;-4.04;100.00;100120.91;5048604;28;20025;-74
2024/01/17 00:33:34;;;;;;;16.77;8.48;;;;;;;-4.01;100.00;100118.91;5048802;28;20024;-75
2024/01/17 00:35:59;;;;;;;16.15;9.05;;;;;;;-4.02;100.00;100130.25;5048533;28;20028;-75
2024/01/17 00:38:25;;;;;;;19.38;9.15;;;;;;;-4.03;100.00;100117.38;5048614;28;20040;-74
2024/01/17 00:40:50;;;;;;;17.90;7.55;;;;;;;-4.07;100.00;100101.16;5048541;28;21099;-75
2024/01/17 00:43:15;;;;;;;21.25;9.00;;;;;;;-4.13;100.00;100093.84;5031677;28;20033;-75
2024/01/17 00:45:41;;;;;;;19.77;8.45;;;;;;;-4.06;100.00;100099.38;5048439;28;20113;-74
2024/01/17 00:48:06;;;;;;;19.95;9.27;;;;;;;-4.07;100.00;100095.13;5048496;28;20044;-75
2024/01/17 00:50:31;;;;;;;18.77;8.60;;;;;;;-4.08;100.00;100090.88;5049728;28;20676;-75
2024/01/17 00:52:57;;;;;;;16.17;7.63;;;;;;;-4.09;100.00;100090.03;5049783;28;20087;-75
2024/01/17 00:55:22;;;;;;;16.63;7.28;;;;;;;-4.10;100.00;100080.56;5049660;28;20028;-75
2024/01/17 00:57:47;;;;;;;18.25;7.88;;;;;;;-4.15;100.00;100066.25;5049631;28;20090;-75
2024/01/17 01:00:13;;;;;;;17.73;8.15;;;;;;;-4.13;100.00;100073.00;5031448;28;20393;-75
2024/01/17 01:02:38;;;;;;;18.52;8.40;;;;;;;-4.12;100.00;100061.63;5048140;28;20077;-75
2024/01/17 01:05:04;;;;;;;17.67;8.15;;;;;;;-4.18;100.00;100049.13;5049487;28;20151;-75
2024/01/17 01:07:29;;;;;;;19.70;8.95;;;;;;;-4.19;100.00;100050.06;5049580;28;20082;-75
2024/01/17 01:09:55;;;;;;;19.80;9.02;;;;;;;-4.21;100.00;100049.34;5047054;28;20057;-75
2024/01/17 01:12:20;;;;;;;15.45;8.38;;;;;;;-4.20;100.00;100057.03;5049542;28;20021;-75
2024/01/17 01:14:46;;;;;;;17.67;7.85;;;;;;;-4.26;100.00;100035.88;5049422;28;20139;-75
2024/01/17 01:17:11;;;;;;;20.33;11.30;;;;;;;-4.21;100.00;100044.16;5031429;28;20035;-75
2024/01/17 01:19:36;;;;;;;15.73;7.28;;;;;;;-4.21;100.00;100039.75;5049449;28;20104;-75
2024/01/17 01:22:02;;;;;;;17.90;8.30;;;;;;;-4.22;100.00;100040.72;5049410;28;20397;-75
2024/01/17 01:24:27;;;;;;;15.02;7.60;;;;;;;-4.24;100.00;100045.22;5031653;28;20036;-75
2024/01/17 01:26:52;;;;;;;16.77;8.38;;;;;;;-4.29;100.00;100034.34;5049201;28;20114;-75
2024/01/17 01:29:18;;;;;;;23.60;9.32;;;;;;;-4.29;100.00;100038.72;5031563;28;20040;-75
2024/01/17 01:31:43;;;;;;;16.60;8.23;;;;;;;-4.32;100.00;100031.13;5049245;28;20396;-75
2024/01/17 01:34:08;;;;;;;22.75;9.77;;;;;;;-4.29;100.00;100031.75;5049257;28;20087;-75
2024/01/17 01:36:34;;;;;;;17.30;8.52;;;;;;;-4.29;100.00;100036.94;5049308;28;20029;-75
2024/01/17 01:38:59;;;;;;;17.70;7.75;;;;;;;-4.34;100.00;100017.44;5049153;28;20060;-75
2024/01/17 01:41:25;;;;;;;16.75;7.50;;;;;;;-4.32;100.00;100028.53;5047879;28;20071;-75
2024/01/17 01:43:50;;;;;;;21.73;8.90;;;;;;;-4.31;100.00;100027.59;5047917;28;20510;-75
2024/01/17 01:46:27;;;;;;;21.30;8.65;;;;;;;-4.43;100.00;100018.97;5031227;28;20017;-75
2024/01/17 01:48:53;;;;;;;17.85;9.68;;;;;;;-4.32;100.00;100031.13;5049106;28;20373;-75
2024/01/17 01:51:20;;;;;;;19.30;9.20;;;;;;;-4.37;100.00;100015.09;5047587;28;20040;-75
2024/01/17 01:53:49;;;;;;;21.33;8.73;;;;;;;-4.38;100.00;100010.81;5049171;28;20472;-75
2024/01/17 01:56:21;;;;;;;19.23;9.50;;;;;;;-4.44;100.00;100015.56;5031257;28;20044;-75
2024/01/17 01:58:48;;;;;;;20.67;8.38;;;;;;;-4.38;100.00;100016.84;5049141;28;20072;-75
2024/01/17 02:01:17;;;;;;;18.52;8.75;;;;;;;-4.44;100.00;100010.34;5047747;28;20029;-75
2024/01/17 02:03:44;;;;;;;15.20;8.38;;;;;;;-4.41;100.00;100004.91;5030983;28;20068;-75
2024/01/17 02:06:12;;;;;;;15.45;8.55;;;;;;;-4.39;100.00;99999.59;5049421;28;20024;-75
2024/01/17 02:08:38;;;;;;;18.75;8.18;;;;;;;-4.44;100.00;99988.72;5047376;28;20079;-75
2024/01/17 02:11:03;;;;;;;17.52;8.45;;;;;;;-4.41;100.00;99986.69;5048722;28;20133;-75
2024/01/17 02:13:29;;;;;;;16.50;7.35;;;;;;;-4.50;100.00;99974.41;5030953;28;20044;-75
2024/01/17 02:15:55;;;;;;;17.58;9.95;;;;;;;-4.44;100.00;99989.53;5048525;28;20025;-75
2024/01/17 02:18:20;;;;;;;17.50;8.52;;;;;;;-4.41;100.00;99978.06;5048951;28;20036;-75
2024/01/17 02:20:46;;;;;;;18.80;8.82;;;;;;;-4.47;100.00;99970.75;5047592;28;20041;-75
2024/01/17 02:23:22;;;;;;;15.90;7.20;;;;;;;-4.41;100.00;99981.47;5050997;28;20031;-75
2024/01/17 02:25:49;;;;;;;22.40;9.45;;;;;;;-4.46;100.00;99962.78;5034132;28;20052;-75
2024/01/17 02:28:15;;;;;;;15.27;8.23;;;;;;;-4.46;100.00;99968.00;5052339;28;20020;-75
2024/01/17 02:30:40;;;;;;;15.77;8.85;;;;;;;-4.50;100.00;99950.16;5052226;28;20036;-75
2024/01/17 02:33:06;;;;;;;17.65;7.82;;;;;;;-4.46;100.00;99955.00;5052141;28;20025;-75
2024/01/17 02:35:32;;;;;;;17.95;9.75;;;;;;;-4.38;100.00;99959.59;5050983;28;20041;-75
2024/01/17 02:37:57;;;;;;;22.17;9.13;;;;;;;-4.43;100.00;99940.91;5052018;28;20539;-75
2024/01/17 02:40:22;;;;;;;19.45;8.57;;;;;;;-4.41;100.00;99936.41;5050824;28;20037;-75
2024/01/17 02:42:48;;;;;;;20.63;9.70;;;;;;;-4.38;100.00;99924.94;5034001;28;20484;-75
2024/01/17 02:45:14;;;;;;;16.95;8.10;;;;;;;-4.38;100.00;99920.53;5017750;28;20429;-75
2024/01/17 02:47:40;;;;;;;18.83;9.43;;;;;;;-4.34;100.00;99918.53;5034220;28;20831;-75
2024/01/17 02:50:06;;;;;;;17.45;9.43;;;;;;;-4.38;100.00;99914.53;5051815;28;20048;-75
2024/01/17 02:52:31;;;;;;;21.35;8.80;;;;;;;-4.34;100.00;99923.75;5051826;28;20033;-75
2024/01/17 02:54:56;;;;;;;20.83;9.27;;;;;;;-4.35;100.00;99915.09;5051607;28;20087;-75
2024/01/17 02:57:22;;;;;;;21.67;9.45;;;;;;;-4.34;100.00;99918.53;5033747;28;20139;-75
2024/01/17 02:59:47;;;;;;;17.83;8.10;;;;;;;-4.34;100.00;99913.34;5051765;28;20065;-75
2024/01/17 03:02:13;;;;;;;14.25;7.32;;;;;;;-4.34;100.00;99908.13;5051760;28;20040;-75
2024/01/17 03:04:38;;;;;;;17.67;8.40;;;;;;;-4.38;100.00;99901.50;5050367;28;20121;-75
2024/01/17 03:07:03;;;;;;;19.67;9.20;;;;;;;-4.39;100.00;99900.69;5050324;28;20033;-75
2024/01/17 03:09:29;;;;;;;21.40;8.43;;;;;;;-4.38;100.00;99888.50;5050130;28;20053;-75
2024/01/17 03:11:54;;;;;;;18.58;9.60;;;;;;;-4.35;100.00;99886.47;5051454;28;20072;-75
2024/01/17 03:14:19;;;;;;;16.95;7.93;;;;;;;-4.41;100.00;99871.34;5050040;28;20056;-75
2024/01/17 03:16:45;;;;;;;18.52;9.07;;;;;;;-4.41;100.00;99874.78;5051442;28;20119;-75
2024/01/17 03:19:14;;;;;;;15.48;7.47;;;;;;;-4.42;100.00;99873.13;5050290;28;20036;-82
2024/01/17 03:21:49;;;;;;;19.25;8.68;;;;;;;-4.41;100.00;99869.56;5052666;28;20028;-82
2024/01/17 03:24:14;;;;;;;20.15;7.95;;;;;;;-4.41;100.00;99871.34;5052656;28;20082;-82
2024/01/17 03:26:39;;;;;;;19.98;7.90;;;;;;;-4.43;100.00;99868.03;5052607;28;20053;-82
2024/01/17 03:29:05;;;;;;;20.02;9.10;;;;;;;-4.44;100.00;99851.59;5052550;28;20435;-82
2024/01/17 03:31:30;;;;;;;17.30;8.52;;;;;;;-4.45;100.00;99852.56;5052684;28;20065;-82
2024/01/17 03:33:55;;;;;;;17.73;8.32;;;;;;;-4.42;100.00;99854.91;5050380;28;20028;-83
2024/01/17 03:36:21;;;;;;;18.02;7.50;;;;;;;-4.42;100.00;99849.72;5052525;28;20051;-82
2024/01/17 03:38:46;;;;;;;17.40;7.55;;;;;;;-4.43;100.00;99842.88;5052443;28;20479;-82
2024/01/17 03:41:12;;;;;;;17.67;8.43;;;;;;;-4.43;100.00;99840.28;5052371;28;20443;-82
2024/01/17 03:43:37;;;;;;;20.02;9.02;;;;;;;-4.43;100.00;99832.47;5051145;28;20413;-82
2024/01/17 03:46:02;;;;;;;14.15;6.53;;;;;;;-4.43;100.00;99824.66;5034552;28;20143;-82
2024/01/17 03:48:28;;;;;;;18.27;8.98;;;;;;;-4.44;100.00;99815.19;5050746;28;20395;-82
2024/01/17 03:50:53;;;;;;;17.05;7.82;;;;;;;-4.43;100.00;99818.59;5034363;28;20036;-82
2024/01/17 03:53:19;;;;;;;20.35;8.57;;;;;;;-4.44;100.00;99804.78;5052230;28;20443;-82
2024/01/17 03:55:44;;;;;;;15.98;6.93;;;;;;;-4.47;100.00;99789.41;5052286;28;20033;-82
2024/01/17 03:58:09;;;;;;;17.10;7.63;;;;;;;-4.44;100.00;99796.16;5051002;28;20539;-82
2024/01/17 04:00:34;;;;;;;16.33;8.55;;;;;;;-4.44;100.00;99785.72;5050734;28;20437;-82
2024/01/17 04:03:00;;;;;;;15.52;7.18;;;;;;;-4.51;100.00;99771.56;5051978;28;20465;-82
2024/01/17 04:05:25;;;;;;;17.75;7.15;;;;;;;-4.43;100.00;99774.38;5052125;28;20032;-83
2024/01/17 04:07:50;;;;;;;17.38;7.10;;;;;;;-4.42;100.00;99766.44;5051782;28;20029;-82
2024/01/17 04:10:16;;;;;;;22.52;9.43;;;;;;;-4.46;100.00;99749.41;5049870;28;20044;-82
2024/01/17 04:12:41;;;;;;;16.88;7.45;;;;;;;-4.45;100.00;99738.06;5051752;28;20053;-83
2024/01/17 04:15:07;;;;;;;18.95;8.50;;;;;;;-4.40;100.00;99745.50;5051831;28;20055;-82
2024/01/17 04:17:33;;;;;;;25.50;8.25;;;;;;;-4.44;100.00;99718.91;5051749;28;20438;-82
2024/01/17 04:19:58;;;;;;;16.05;7.30;;;;;;;-4.39;100.00;99731.53;5050434;28;20543;-82
2024/01/17 04:22:23;;;;;;;17.95;7.22;;;;;;;-4.38;100.00;99719.34;5051648;28;20465;-82
2024/01/17 04:24:49;;;;;;;15.70;7.78;;;;;;;-4.38;100.00;99708.94;5050293;28;20035;-82
2024/01/17 04:27:14;;;;;;;15.80;7.13;;;;;;;-4.34;100.00;99710.34;5051623;28;20029;-82
2024/01/17 04:29:40;;;;;;;19.05;7.70;;;;;;;-4.34;100.00;99699.91;5051659;28;20090;-83
2024/01/17 04:32:05;;;;;;;17.80;8.13;;;;;;;-4.38;100.00;99691.53;5051623;28;20154;-83
2024/01/17 04:34:30;;;;;;;19.08;8.43;;;;;;;-4.37;100.00;99681.97;5051264;28;20029;-82
2024/01/17 04:36:56;;;;;;;15.75;7.38;;;;;;;-4.40;100.00;99659.63;5049839;28;20115;-82
2024/01/17 04:39:21;;;;;;;22.38;9.07;;;;;;;-4.34;100.00;99679.91;5050198;28;20399;-82
2024/01/17 04:41:46;;;;;;;17.85;8.57;;;;;;;-4.33;100.00;99667.72;5049940;28;20036;-83
2024/01/17 04:44:12;;;;;;;15.05;7.53;;;;;;;-4.35;100.00;99654.84;5051214;28;20032;-82
2024/01/17 04:46:38;;;;;;;17.88;8.30;;;;;;;-4.37;100.00;99651.56;5051316;28;20108;-82
2024/01/17 04:49:03;;;;;;;17.65;7.68;;;;;;;-4.35;100.00;99648.81;5051312;28;20025;-82
2024/01/17 04:51:28;;;;;;;15.55;7.93;;;;;;;-4.41;100.00;99642.34;5051247;28;20036;-82
2024/01/17 04:53:54;;;;;;;18.02;7.68;;;;;;;-4.42;100.00;99640.72;5051161;28;20531;-82
2024/01/17 04:56:20;;;;;;;20.10;9.70;;;;;;;-4.36;100.00;99649.78;5050783;28;20052;-82
2024/01/17 04:58:45;;;;;;;24.42;8.90;;;;;;;-4.36;100.00;99653.19;5049355;28;20130;-81
2024/01/17 05:01:10;;;;;;;19.20;9.30;;;;;;;-4.37;100.00;99651.56;5049529;28;20151;-81
2024/01/17 05:03:36;;;;;;;16.38;8.48;;;;;;;-4.37;100.00;99653.34;5051137;28;20365;-82
2024/01/17 05:06:02;;;;;;;19.70;8.13;;;;;;;-4.37;100.00;99640.34;5050983;28;20041;-82
2024/01/17 05:08:29;;;;;;;19.98;9.15;;;;;;;-4.46;100.00;99624.53;5050425;28;20052;-82
2024/01/17 05:10:55;;;;;;;16.35;7.95;;;;;;;-4.41;100.00;99632.75;5050485;28;20098;-82
2024/01/17 05:13:20;;;;;;;18.42;8.77;;;;;;;-4.41;100.00;99624.13;5050887;28;20036;-82
2024/01/17 05:15:47;;;;;;;18.15;8.02;;;;;;;-4.43;100.00;99610.44;5050930;28;20060;-82
2024/01/17 05:18:12;;;;;;;17.15;7.80;;;;;;;-4.45;100.00;99601.94;5050961;28;20021;-82
2024/01/17 05:20:38;;;;;;;17.63;8.57;;;;;;;-4.46;100.00;99603.72;5050819;28;20490;-82
2024/01/17 05:23:04;;;;;;;17.73;8.90;;;;;;;-4.46;100.00;99606.31;5050419;28;20040;-82
2024/01/17 05:25:29;;;;;;;18.42;8.27;;;;;;;-4.47;100.00;99609.88;5050791;28;20392;-82
2024/01/17 05:27:54;;;;;;;17.00;8.18;;;;;;;-4.49;100.00;99601.38;5050700;28;20036;-82
2024/01/17 05:30:23;;;;;;;21.55;10.40;;;;;;;-4.49;100.00;99600.56;5050692;28;20036;-82
2024/01/17 05:32:49;;;;;;;21.13;9.57;;;;;;;-4.50;100.00;99594.53;5050377;28;20021;-82
2024/01/17 05:35:15;;;;;;;19.85;9.20;;;;;;;-4.53;100.00;99571.38;5050826;28;20040;-82
2024/01/17 05:37:41;;;;;;;23.92;10.55;;;;;;;-4.53;100.00;99581.78;5050744;28;20025;-82
2024/01/17 05:40:10;;;;;;;19.08;8.77;;;;;;;-4.55;100.00;99577.66;5050503;28;20056;-82
2024/01/17 05:42:37;;;;;;;18.33;10.60;;;;;;;-4.63;100.00;99560.94;5050330;28;20124;-82
2024/01/17 05:45:03;;;;;;;21.13;10.65;;;;;;;-4.57;100.00;99562.19;5050248;28;20041;-82
2024/01/17 05:47:29;;;;;;;22.23;9.48;;;;;;;-4.56;100.00;99550.81;5050607;28;20036;-82
2024/01/17 05:49:56;;;;;;;19.25;9.85;;;;;;;-4.59;100.00;99550.25;5049381;28;20033;-82
2024/01/17 05:52:22;;;;;;;22.08;9.15;;;;;;;-4.55;100.00;99547.28;5050275;28;20021;-81
2024/01/17 05:54:47;;;;;;;16.65;8.68;;;;;;;-4.55;100.00;99538.66;5049103;28;20048;-81
2024/01/17 05:57:13;;;;;;;17.95;9.63;;;;;;;-4.55;100.00;99530.84;5052752;28;20377;-82
2024/01/17 05:59:38;;;;;;;24.58;10.68;;;;;;;-4.60;100.00;99527.81;5054189;28;20074;-82
2024/01/17 06:02:03;;;;;;;17.98;9.65;;;;;;;-4.55;100.00;99536.88;5054228;28;20033;-82
2024/01/17 06:04:29;;;;;;;18.55;8.82;;;;;;;-4.59;100.00;99526.84;5054199;28;20040;-82
2024/01/17 06:06:55;;;;;;;13.98;7.90;;;;;;;-4.58;100.00;99521.53;5054151;28;20075;-81
2024/01/17 06:09:20;;;;;;;21.35;9.18;;;;;;;-4.53;100.00;99529.75;5053853;28;20440;-81
2024/01/17 06:11:46;;;;;;;18.67;8.85;;;;;;;-4.53;100.00;99519.34;5053755;28;20067;-82
2024/01/17 06:14:11;;;;;;;20.83;8.93;;;;;;;-4.51;100.00;99512.22;5053800;28;20033;-82
2024/01/17 06:16:37;;;;;;;19.35;8.35;;;;;;;-4.51;100.00;99503.59;5052528;28;20495;-82
2024/01/17 06:19:02;;;;;;;18.02;8.60;;;;;;;-4.48;100.00;99513.72;5053785;28;20066;-82
2024/01/17 06:21:28;;;;;;;15.90;8.00;;;;;;;-4.44;100.00;99522.94;5053606;28;20647;-82
2024/01/17 06:23:53;;;;;;;14.93;8.23;;;;;;;-4.43;100.00;99517.59;5053878;28;20031;-82
2024/01/17 06:26:19;;;;;;;20.08;8.73;;;;;;;-4.42;100.00;99508.00;5053621;28;20029;-82
2024/01/17 06:28:44;;;;;;;20.45;8.52;;;;;;;-4.43;100.00;99504.59;5052018;28;20036;-81
2024/01/17 06:31:10;;;;;;;17.15;8.20;;;;;;;-4.38;100.00;99505.94;5053588;28;20102;-82
2024/01/17 06:33:35;;;;;;;15.63;8.02;;;;;;;-4.36;100.00;99504.03;5053464;28;20392;-82
2024/01/17 06:36:01;;;;;;;15.93;7.72;;;;;;;-4.45;100.00;99488.28;5053645;28;20445;-82
2024/01/17 06:38:26;;;;;;;15.27;7.22;;;;;;;-4.34;100.00;99492.53;5053694;28;20033;-82
2024/01/17 06:40:51;;;;;;;16.85;8.05;;;;;;;-4.37;100.00;99482.41;5053570;28;20025;-82
2024/01/17 06:43:17;;;;;;;27.60;8.55;;;;;;;-4.37;100.00;99474.59;5052090;28;20112;-81
2024/01/17 06:45:43;;;;;;;20.73;10.02;;;;;;;-4.34;100.00;99478.72;5052206;28;20086;-82
2024/01/17 06:48:08;;;;;;;19.42;9.45;;;;;;;-4.32;100.00;99474.19;5053325;28;20120;-81
2024/01/17 06:50:33;;;;;;;14.73;7.78;;;;;;;-4.30;100.00;99478.28;5052158;28;20119;-82
2024/01/17 06:52:59;;;;;;;14.35;7.10;;;;;;;-4.30;100.00;99480.88;5052923;28;20025;-82
2024/01/17 06:55:25;;;;;;;17.27;7.68;;;;;;;-4.38;100.00;99456.50;5053177;28;20044;-82
2024/01/17 06:57:51;;;;;;;17.70;9.25;;;;;;;-4.29;100.00;99473.94;5053162;28;20193;-82
2024/01/17 07:00:17;;;;;;;19.33;8.18;;;;;;;-4.37;100.00;99466.78;5053065;28;20033;-82
2024/01/17 07:02:43;;;;;;;16.67;8.98;;;;;;;-4.32;100.00;99472.41;5051679;28;20417;-82
2024/01/17 07:05:08;;;;;;;16.10;7.18;;;;;;;-4.42;100.00;99456.78;5051043;28;20037;-82
2024/01/17 07:07:34;;;;;;;13.27;7.60;;;;;;;-4.29;100.00;99464.34;5052055;28;20075;-82
2024/01/17 07:09:59;;;;;;;19.13;8.80;;;;;;;-4.28;100.00;99460.75;5052510;28;20048;-81
2024/01/17 07:12:25;;;;;;;17.48;8.52;;;;;;;-4.33;100.00;99451.72;5053040;28;20103;-82
2024/01/17 07:14:54;;;;;;;18.63;8.05;;;;;;;-4.27;100.00;99451.16;5052865;28;20025;-82
2024/01/17 07:17:19;;;;;;;20.02;8.77;;;;;;;-4.31;100.00;99439.41;5052563;28;20045;-82
2024/01/17 07:19:44;;;;;;;22.58;7.80;;;;;;;-4.25;100.00;99441.44;5051427;28;20059;-82
2024/01/17 07:22:13;;;;;;;18.13;8.93;;;;;;;-4.25;100.00;99429.25;5052407;28;20395;-81
2024/01/17 07:24:38;;;;;;;17.95;8.43;;;;;;;-4.31;100.00;99422.00;5052427;28;20037;-82
2024/01/17 07:27:04;;;;;;;17.00;8.27;;;;;;;-4.22;100.00;99417.75;5053035;28;20025;-81
2024/01/17 07:29:29;;;;;;;17.38;9.52;;;;;;;-4.21;100.00;99409.81;5051328;28;20033;-81
2024/01/17 07:31:54;;;;;;;21.05;9.25;;;;;;;-4.25;100.00;99403.22;5052536;28;20020;-81
2024/01/17 07:34:20;;;;;;;21.63;9.80;;;;;;;-4.20;100.00;99400.22;5051285;28;20650;-81
2024/01/17 07:36:46;;;;;;;18.08;9.15;;;;;;;-4.24;100.00;99391.06;5050935;28;20036;-82
2024/01/17 07:39:14;;;;;;;22.08;9.77;;;;;;;-4.19;100.00;99396.69;5034224;28;20083;-82
2024/01/17 07:41:39;;;;;;;19.40;8.55;;;;;;;-4.17;100.00;99392.13;5052077;28;20040;-81
2024/01/17 07:44:06;;;;;;;19.52;9.32;;;;;;;-4.16;100.00;99388.59;5051695;28;20059;-80
2024/01/17 07:46:32;;;;;;;26.38;11.30;;;;;;;-4.20;100.00;99363.78;5050066;28;20120;-81
2024/01/17 07:48:58;;;;;;;22.67;10.02;;;;;;;-4.11;100.00;99372.53;5051160;28;20116;-81
2024/01/17 07:51:23;;;;;;;17.67;9.38;;;;;;;-4.13;100.00;99364.88;5051264;28;20025;-81
2024/01/17 07:53:49;;;;;;;19.83;9.40;;;;;;;-4.11;100.00;99357.75;5049989;28;20605;-81
2024/01/17 07:56:14;;;;;;;19.17;10.25;;;;;;;-4.12;100.00;99355.28;5050744;28;20037;-81
2024/01/17 07:58:39;;;;;;;19.15;9.63;;;;;;;-4.07;100.00;99347.88;5050645;28;20032;-81
2024/01/17 08:01:05;;;;;;;22.55;11.02;;;;;;;-4.11;100.00;99336.94;5051722;28;20060;-80
2024/01/17 08:03:31;;;;;;;19.38;11.13;;;;;;;-4.07;100.00;99342.66;5051687;28;20041;-81
2024/01/17 08:05:56;;;;;;;22.98;11.43;;;;;;;-4.08;100.00;99338.44;5051712;28;20026;-81
2024/01/17 08:08:22;;;;;;;20.55;13.02;;;;;;;-4.06;100.00;99341.69;5049675;28;20044;-81
2024/01/17 08:10:47;;;;;;;20.88;11.32;;;;;;;-4.01;100.00;99342.09;5049470;28;20033;-83
2024/01/17 08:13:12;;;;;;;20.95;10.25;;;;;;;-4.01;100.00;99337.72;5050529;28;20097;-79
2024/01/17 08:15:38;;;;;;;24.63;10.52;;;;;;;-3.97;100.00;99338.25;5049357;28;20476;-80
2024/01/17 08:18:03;;;;;;;25.83;12.52;;;;;;;-3.94;100.00;99329.34;5047879;28;20057;-79
2024/01/17 08:20:29;;;;;;;22.45;10.43;;;;;;;-3.90;100.00;99330.69;5048407;28;20396;-79
2024/01/17 08:22:55;;;;;;;22.90;12.32;;;;;;;-3.87;100.00;99328.63;5049037;28;20397;-79
2024/01/17 08:25:20;;;;;;;19.50;9.95;;;;;;;-3.82;100.00;99331.63;5048621;28;20036;-79
2024/01/17 08:27:45;;;;;;;23.65;11.30;;;;;;;-3.78;100.00;99325.16;5047320;28;20076;-79
2024/01/17 08:30:11;;;;;;;24.42;10.98;;;;;;;-3.73;100.00;99319.53;5048558;28;20033;-78
2024/01/17 08:32:37;;;;;;;22.45;11.30;;;;;;;-3.68;100.00;99319.13;5047982;28;20108;-77
2024/01/17 08:35:02;;;;;;;21.52;10.95;;;;;;;-3.64;100.00;99312.63;5048455;28;20033;-77
2024/01/17 08:37:28;;;;;;;25.83;11.45;;;;;;;-3.62;100.00;99301.09;5047958;28;20081;-77
2024/01/17 08:39:54;;;;;;;20.90;11.35;;;;;;;-3.63;100.00;99291.66;5048373;28;20083;-78
2024/01/17 08:42:19;;;;;;;23.40;11.07;;;;;;;-3.58;100.00;99301.66;5030278;28;20037;-79
2024/01/17 08:44:45;;;;;;;22.38;11.80;;;;;;;-3.63;100.00;99280.44;5048092;28;20029;-78
2024/01/17 08:47:11;;;;;;;21.15;11.25;;;;;;;-3.56;100.00;99278.91;5048122;28;20060;-78
2024/01/17 08:49:39;;;;;;;26.23;11.80;;;;;;;-3.51;100.00;99281.88;5048798;28;20037;-79
2024/01/17 08:52:06;;;;;;;18.80;11.05;;;;;;;-3.47;100.00;99280.63;5048264;28;20096;-78
2024/01/17 08:54:31;;;;;;;19.95;9.00;;;;;;;-3.41;100.00;99274.81;5048194;28;20111;-77
2024/01/17 08:56:57;;;;;;;18.92;8.45;;;;;;;-3.42;100.00;99265.38;5047610;28;20037;-77
2024/01/17 08:59:22;;;;;;;18.08;7.30;;;;;;;-3.38;100.00;99263.28;5047888;28;20037;-77
2024/01/17 09:01:47;;;;;;;20.65;8.05;;;;;;;-3.44;100.00;99261.25;5048519;28;20043;-76
2024/01/17 09:04:13;;;;;;;20.55;8.27;;;;;;;-3.38;100.00;99263.28;5047556;28;20041;-76
2024/01/17 09:06:38;;;;;;;18.67;8.63;;;;;;;-3.34;100.00;99267.25;5047461;28;20025;-77
2024/01/17 09:09:04;;;;;;;16.63;7.72;;;;;;;-3.32;100.00;99260.91;5045998;28;20076;-77
2024/01/17 09:11:31;;;;;;;15.13;7.75;;;;;;;-3.36;100.00;99246.53;5029835;28;20091;-77
2024/01/17 09:13:57;;;;;;;17.95;7.05;;;;;;;-3.32;100.00;99241.84;5037169;28;20056;-77
2024/01/17 09:16:22;;;;;;;18.92;7.82;;;;;;;-3.27;100.00;99247.44;5047042;28;20036;-82
2024/01/17 09:18:48;;;;;;;18.73;8.55;;;;;;;-3.22;100.00;99228.72;5048025;28;20028;-82
2024/01/17 09:21:14;;;;;;;13.90;7.22;;;;;;;-3.20;100.00;99229.41;5049389;28;20029;-85
2024/01/17 09:23:40;;;;;;;13.60;6.68;;;;;;;-3.13;100.00;99228.66;5049318;28;20396;-84
2024/01/17 09:26:05;;;;;;;20.17;7.43;;;;;;;-3.03;100.00;99222.56;5049626;28;20029;-83
2024/01/17 09:28:31;;;;;;;20.42;9.15;;;;;;;-2.97;100.00;99222.78;5049336;28;20549;-83
2024/01/17 09:30:56;;;;;;;13.07;7.10;;;;;;;-2.93;100.00;99215.50;5049580;28;20029;-82
2024/01/17 09:33:21;;;;;;;17.13;7.47;;;;;;;-2.81;100.00;99209.06;5052184;28;20075;-83
2024/01/17 09:35:48;;;;;;;13.25;7.55;;;;;;;-2.75;100.00;99212.84;5052141;28;20033;-82
2024/01/17 09:38:14;;;;;;;20.10;8.80;;;;;;;-2.70;100.00;99207.97;5053454;28;20052;-82
2024/01/17 09:40:39;;;;;;;18.15;7.38;;;;;;;-2.60;100.00;99207.91;5053251;28;20040;-81
2024/01/17 09:43:06;;;;;;;18.25;8.20;;;;;;;-2.56;100.00;99196.19;5052758;28;20477;-82
2024/01/17 09:45:33;;;;;;;19.13;9.20;;;;;;;-2.46;100.00;99210.78;5052998;28;20388;-84
2024/01/17 09:48:00;;;;;;;16.35;6.85;;;;;;;-2.43;100.00;99213.06;5052647;28;20511;-83
2024/01/17 09:50:25;;;;;;;13.40;7.50;;;;;;;-2.41;100.00;99212.94;5052974;28;20054;-83
2024/01/17 09:52:54;;;;;;;17.17;7.20;;;;;;;-2.48;100.00;99201.47;5051720;28;20082;-82
2024/01/17 09:55:20;;;;;;;19.88;9.05;;;;;;;-2.47;100.00;99201.28;5051036;28;20037;-83
2024/01/17 09:57:51;;;;;;;16.77;7.43;;;;;;;-2.36;100.00;99213.28;5052368;28;20380;-82
2024/01/17 10:00:16;;;;;;;17.90;7.95;;;;;;;-2.30;100.00;99217.88;5051385;28;20115;-82
2024/01/17 10:02:42;;;;;;;18.15;7.35;;;;;;;-2.25;100.00;99213.03;5052766;28;20585;-83
2024/01/17 10:05:09;;;;;;;17.77;8.23;;;;;;;-2.22;100.00;99204.88;5051951;28;20512;-84
2024/01/17 10:07:36;;;;;;;21.75;8.75;;;;;;;-2.29;100.00;99198.63;5052711;28;20086;-82
2024/01/17 10:10:02;;;;;;;15.65;6.55;;;;;;;-2.31;100.00;99194.53;5051995;28;20045;-84
2024/01/17 10:12:28;;;;;;;19.48;7.28;;;;;;;-2.29;100.00;99185.56;5053041;28;20025;-82
2024/01/17 10:14:53;;;;;;;17.83;8.88;;;;;;;-2.27;100.00;99186.25;5050652;28;20040;-81
2024/01/17 10:17:19;;;;;;;15.95;7.85;;;;;;;-2.22;100.00;99189.22;5050161;28;20132;-78
2024/01/17 10:19:44;;;;;;;19.92;8.48;;;;;;;-2.21;100.00;99188.22;5051116;28;20032;-76
2024/01/17 10:22:10;;;;;;;17.17;6.95;;;;;;;-2.16;100.00;99185.16;5050332;28;20135;-78
2024/01/17 10:24:37;;;;;;;14.98;7.13;;;;;;;-2.13;100.00;99182.22;5048888;28;20078;-82
2024/01/17 10:27:09;;;;;;;14.27;7.70;;;;;;;-2.11;100.00;99175.06;5050926;28;20036;-77
2024/01/17 10:29:37;;;;;;;21.50;7.97;;;;;;;-2.11;100.00;99164.63;5050440;28;20029;-78
2024/01/17 10:32:03;;;;;;;16.17;8.05;;;;;;;-2.04;100.00;99157.78;5050083;28;20037;-77
2024/01/17 10:34:29;;;;;;;24.05;8.38;;;;;;;-1.98;100.00;99164.19;5048706;28;20029;-79
2024/01/17 10:36:55;;;;;;;16.35;7.43;;;;;;;-1.99;100.00;99149.50;5049925;28;20047;-79
2024/01/17 10:39:21;;;;;;;22.15;8.65;;;;;;;-1.93;100.00;99161.09;5050363;28;20476;-78
2024/01/17 10:41:51;;;;;;;19.83;8.50;;;;;;;-2.02;100.00;99140.19;5049939;28;20057;-80
2024/01/17 10:44:18;;;;;;;18.45;8.98;;;;;;;-1.85;100.00;99156.72;5050285;28;20637;-78
2024/01/17 10:46:46;;;;;;;20.13;9.40;;;;;;;-1.84;100.00;99147.88;5049298;28;20107;-78
2024/01/17 10:49:12;;;;;;;18.80;8.27;;;;;;;-1.81;100.00;99155.44;5032597;28;20364;-78
2024/01/17 10:51:40;;;;;;;16.27;7.22;;;;;;;-1.79;100.00;99147.41;5049865;28;20132;-78
2024/01/17 10:54:05;;;;;;;21.02;8.75;;;;;;;-1.80;100.00;99144.00;5049525;28;20019;-78
2024/01/17 10:56:35;;;;;;;22.88;10.82;;;;;;;-1.79;100.00;99129.94;5046587;28;20388;-78
2024/01/17 10:59:03;;;;;;;19.20;10.38;;;;;;;-1.71;100.00;99118.69;5036582;28;20360;-78
2024/01/17 11:01:43;;;;;;;19.02;8.48;;;;;;;-1.71;100.00;99116.06;5048344;28;20025;-78
2024/01/17 11:04:22;;;;;;;19.40;8.88;;;;;;;-1.63;100.00;99118.69;5048744;28;20051;-78
2024/01/17 11:06:49;;;;;;;22.20;9.80;;;;;;;-1.66;100.00;99110.38;5047185;28;20028;-78
2024/01/17 11:09:15;;;;;;;22.50;10.15;;;;;;;-1.71;100.00;99096.97;5047511;28;20052;-78